sensor_id;sensor_type;location;lat;lon;timestamp;pressure;altitude;pressure_sealevel;temperature;humidity
6565;BME280;3316;44.118;27.258;2023-07-13T00:00:38;100932.41;;;25.92;100.00
6565;BME280;3316;44.118;27.258;2023-07-13T00:03:04;100960.81;;;26.10;100.00
6565;BME280;3316;44.118;27.258;2023-07-13T00:05:30;100968.06;;;26.22;100.00
6565;BME280;3316;44.118;27.258;2023-07-13T00:07:56;100968.28;;;26.19;100.00
6565;BME280;3316;44.118;27.258;2023-07-13T00:10:21;100974.97;;;26.26;100.00
6565;BME280;3316;44.118;27.258;2023-07-13T00:12:47;100972.69;;;26.20;100.00
6565;BME280;3316;44.118;27.258;2023-07-13T00:15:19;100992.78;;;26.28;100.00
6565;BME280;3316;44.118;27.258;2023-07-13T00:17:52;100969.81;;;26.23;100.00
6565;BME280;3316;44.118;27.258;2023-07-13T00:20:19;100947.25;;;26.11;100.00
6565;BME280;3316;44.118;27.258;2023-07-13T00:22:47;100965.25;;;26.36;100.00
6565;BME280;3316;44.118;27.258;2023-07-13T00:25:13;100963.63;;;26.33;100.00
6565;BME280;3316;44.118;27.258;2023-07-13T00:27:39;100970.88;;;26.33;100.00
6565;BME280;3316;44.118;27.258;2023-07-13T00:30:05;100976.28;;;26.33;100.00
6565;BME280;3316;44.118;27.258;2023-07-13T00:32:30;100984.03;;;26.25;100.00
6565;BME280;3316;44.118;27.258;2023-07-13T00:34:56;100972.81;;;26.31;100.00
6565;BME280;3316;44.118;27.258;2023-07-13T00:37:22;100969.78;;;26.35;100.00
6565;BME280;3316;44.118;27.258;2023-07-13T00:39:48;100957.69;;;26.41;100.00
6565;BME280;3316;44.118;27.258;2023-07-13T00:42:14;100956.81;;;26.53;100.00
6565;BME280;3316;44.118;27.258;2023-07-13T00:44:40;100944.97;;;26.56;100.00
6565;BME280;3316;44.118;27.258;2023-07-13T00:47:06;100949.91;;;26.49;100.00
6565;BME280;3316;44.118;27.258;2023-07-13T00:49:33;100946.50;;;26.34;100.00
6565;BME280;3316;44.118;27.258;2023-07-13T00:52:09;100942.50;;;26.40;100.00
6565;BME280;3316;44.118;27.258;2023-07-13T00:54:40;100935.59;;;26.36;100.00
6565;BME280;3316;44.118;27.258;2023-07-13T00:57:12;100916.03;;;26.20;100.00
6565;BME280;3316;44.118;27.258;2023-07-13T00:59:41;100909.91;;;26.18;100.00
6565;BME280;3316;44.118;27.258;2023-07-13T01:02:07;100915.38;;;26.04;100.00
6565;BME280;3316;44.118;27.258;2023-07-13T01:04:33;100920.72;;;25.79;100.00
6565;BME280;3316;44.118;27.258;2023-07-13T01:06:58;100923.59;;;25.63;100.00
6565;BME280;3316;44.118;27.258;2023-07-13T01:09:26;100918.31;;;25.62;100.00
6565;BME280;3316;44.118;27.258;2023-07-13T01:11:52;100916.94;;;25.69;100.00
6565;BME280;3316;44.118;27.258;2023-07-13T01:14:18;100915.31;;;25.79;100.00
6565;BME280;3316;44.118;27.258;2023-07-13T01:16:45;100917.72;;;25.83;100.00
6565;BME280;3316;44.118;27.258;2023-07-13T01:22:08;100870.22;;;25.55;100.00
6565;BME280;3316;44.118;27.258;2023-07-13T01:24:36;100897.50;;;25.64;100.00
6565;BME280;3316;44.118;27.258;2023-07-13T01:27:02;100903.06;;;25.75;100.00
6565;BME280;3316;44.118;27.258;2023-07-13T01:29:28;100908.34;;;25.89;100.00
6565;BME280;3316;44.118;27.258;2023-07-13T01:31:54;100914.06;;;25.84;100.00
6565;BME280;3316;44.118;27.258;2023-07-13T01:34:19;100908.00;;;25.81;100.00
6565;BME280;3316;44.118;27.258;2023-07-13T01:36:44;100889.13;;;25.81;100.00
6565;BME280;3316;44.118;27.258;2023-07-13T01:39:10;100883.44;;;25.73;100.00
6565;BME280;3316;44.118;27.258;2023-07-13T01:41:35;100908.97;;;25.80;100.00
6565;BME280;3316;44.118;27.258;2023-07-13T01:44:01;100899.06;;;25.93;100.00
6565;BME280;3316;44.118;27.258;2023-07-13T01:46:26;100896.16;;;25.83;100.00
6565;BME280;3316;44.118;27.258;2023-07-13T01:48:51;100901.13;;;25.89;100.00
6565;BME280;3316;44.118;27.258;2023-07-13T01:51:18;100902.88;;;25.90;100.00
6565;BME280;3316;44.118;27.258;2023-07-13T01:53:43;100903.94;;;25.88;100.00
6565;BME280;3316;44.118;27.258;2023-07-13T01:56:08;100902.59;;;25.81;100.00
6565;BME280;3316;44.118;27.258;2023-07-13T01:58:34;100899.59;;;25.85;100.00
6565;BME280;3316;44.118;27.258;2023-07-13T02:00:59;100907.72;;;25.98;100.00
6565;BME280;3316;44.118;27.258;2023-07-13T02:03:25;100906.09;;;25.95;100.00
6565;BME280;3316;44.118;27.258;2023-07-13T02:05:50;100911.59;;;25.94;100.00
6565;BME280;3316;44.118;27.258;2023-07-13T02:08:16;100904.53;;;25.79;100.00
6565;BME280;3316;44.118;27.258;2023-07-13T02:10:41;100912.78;;;25.90;100.00
6565;BME280;3316;44.118;27.258;2023-07-13T02:13:07;100913.47;;;26.06;100.00
6565;BME280;3316;44.118;27.258;2023-07-13T02:15:33;100914.31;;;26.06;100.00
6565;BME280;3316;44.118;27.258;2023-07-13T02:17:58;100907.16;;;25.93;100.00
6565;BME280;3316;44.118;27.258;2023-07-13T02:20:24;100919.56;;;25.95;100.00
6565;BME280;3316;44.118;27.258;2023-07-13T02:22:51;100906.41;;;25.91;100.00
6565;BME280;3316;44.118;27.258;2023-07-13T02:25:16;100902.53;;;25.95;100.00
6565;BME280;3316;44.118;27.258;2023-07-13T02:27:42;100925.41;;;26.02;100.00
6565;BME280;3316;44.118;27.258;2023-07-13T02:30:08;100919.47;;;25.97;100.00
6565;BME280;3316;44.118;27.258;2023-07-13T02:32:33;100915.38;;;26.04;100.00
6565;BME280;3316;44.118;27.258;2023-07-13T02:35:00;100926.78;;;25.95;100.00
6565;BME280;3316;44.118;27.258;2023-07-13T02:37:26;100916.63;;;25.73;100.00
6565;BME280;3316;44.118;27.258;2023-07-13T02:39:51;100914.06;;;25.84;100.00
6565;BME280;3316;44.118;27.258;2023-07-13T02:42:17;100921.63;;;25.92;100.00
6565;BME280;3316;44.118;27.258;2023-07-13T02:44:42;100903.81;;;25.89;100.00
6565;BME280;3316;44.118;27.258;2023-07-13T02:47:08;100895.63;;;25.78;100.00
6565;BME280;3316;44.118;27.258;2023-07-13T02:49:33;100912.22;;;25.85;100.00
6565;BME280;3316;44.118;27.258;2023-07-13T02:51:59;100878.34;;;25.68;100.00
6565;BME280;3316;44.118;27.258;2023-07-13T02:54:24;100898.19;;;25.80;100.00
6565;BME280;3316;44.118;27.258;2023-07-13T02:56:50;100913.72;;;25.76;100.00
6565;BME280;3316;44.118;27.258;2023-07-13T02:59:15;100910.81;;;25.79;100.00
6565;BME280;3316;44.118;27.258;2023-07-13T03:01:41;100912.66;;;25.91;100.00
6565;BME280;3316;44.118;27.258;2023-07-13T03:04:07;100909.09;;;25.78;100.00
6565;BME280;3316;44.118;27.258;2023-07-13T03:06:32;100929.47;;;25.82;100.00
6565;BME280;3316;44.118;27.258;2023-07-13T03:08:58;100918.34;;;25.87;100.00
6565;BME280;3316;44.118;27.258;2023-07-13T03:11:25;100920.44;;;25.96;100.00
6565;BME280;3316;44.118;27.258;2023-07-13T03:13:51;100915.88;;;25.84;100.00
6565;BME280;3316;44.118;27.258;2023-07-13T03:16:17;100920.44;;;25.96;100.00
6565;BME280;3316;44.118;27.258;2023-07-13T03:18:43;100927.69;;;26.08;100.00
6565;BME280;3316;44.118;27.258;2023-07-13T03:21:09;100895.75;;;26.02;100.00
6565;BME280;3316;44.118;27.258;2023-07-13T03:23:34;100934.84;;;26.21;100.00
6565;BME280;3316;44.118;27.258;2023-07-13T03:26:05;100935.06;;;26.31;100.00
6565;BME280;3316;44.118;27.258;2023-07-13T03:28:31;100927.91;;;26.55;100.00
6565;BME280;3316;44.118;27.258;2023-07-13T03:31:29;100932.38;;;26.92;100.00
6565;BME280;3316;44.118;27.258;2023-07-13T03:33:56;100930.22;;;26.97;100.00
6565;BME280;3316;44.118;27.258;2023-07-13T03:36:25;100934.59;;;27.47;100.00
6565;BME280;3316;44.118;27.258;2023-07-13T03:38:54;100921.69;;;27.51;100.00
6565;BME280;3316;44.118;27.258;2023-07-13T03:41:21;100932.63;;;27.84;100.00
6565;BME280;3316;44.118;27.258;2023-07-13T03:43:48;100904.03;;;27.58;100.00
6565;BME280;3316;44.118;27.258;2023-07-13T03:46:14;100933.09;;;28.01;100.00
6565;BME280;3316;44.118;27.258;2023-07-13T03:48:41;100920.16;;;28.05;100.00
6565;BME280;3316;44.118;27.258;2023-07-13T03:51:09;100922.75;;;27.95;100.00
6565;BME280;3316;44.118;27.258;2023-07-13T03:53:38;100923.78;;;27.82;100.00
6565;BME280;3316;44.118;27.258;2023-07-13T03:56:04;100927.06;;;27.98;100.00
6565;BME280;3316;44.118;27.258;2023-07-13T03:58:40;100939.28;;;28.26;100.00
6565;BME280;3316;44.118;27.258;2023-07-13T04:01:07;100942.50;;;28.53;100.00
6565;BME280;3316;44.118;27.258;2023-07-13T04:03:34;100932.28;;;29.00;100.00
6565;BME280;3316;44.118;27.258;2023-07-13T04:06:01;100941.31;;;29.55;100.00
6565;BME280;3316;44.118;27.258;2023-07-13T04:08:28;100943.47;;;29.93;100.00
6565;BME280;3316;44.118;27.258;2023-07-13T04:10:54;100937.97;;;30.45;100.00
6565;BME280;3316;44.118;27.258;2023-07-13T04:13:20;100944.13;;;30.77;100.00
6565;BME280;3316;44.118;27.258;2023-07-13T04:15:46;100954.72;;;30.80;100.00
6565;BME280;3316;44.118;27.258;2023-07-13T04:18:11;100937.38;;;31.02;100.00
6565;BME280;3316;44.118;27.258;2023-07-13T04:20:36;100953.25;;;30.97;100.00
6565;BME280;3316;44.118;27.258;2023-07-13T04:23:02;100955.59;;;31.20;100.00
6565;BME280;3316;44.118;27.258;2023-07-13T04:25:27;100950.69;;;31.54;100.00
6565;BME280;3316;44.118;27.258;2023-07-13T04:27:53;100950.38;;;31.67;99.49
6565;BME280;3316;44.118;27.258;2023-07-13T04:30:19;100952.41;;;31.93;96.47
6565;BME280;3316;44.118;27.258;2023-07-13T04:32:45;100957.25;;;31.90;95.82
6565;BME280;3316;44.118;27.258;2023-07-13T04:35:11;100965.16;;;32.02;94.75
6565;BME280;3316;44.118;27.258;2023-07-13T04:37:37;100969.16;;;32.08;93.03
6565;BME280;3316;44.118;27.258;2023-07-13T04:40:03;100968.00;;;32.29;92.17
6565;BME280;3316;44.118;27.258;2023-07-13T04:42:29;100964.28;;;32.11;92.14
6565;BME280;3316;44.118;27.258;2023-07-13T04:44:55;100972.59;;;32.19;93.11
6565;BME280;3316;44.118;27.258;2023-07-13T04:47:20;100972.84;;;32.45;91.66
6565;BME280;3316;44.118;27.258;2023-07-13T04:49:46;100976.22;;;32.01;91.69
6565;BME280;3316;44.118;27.258;2023-07-13T04:52:11;100952.13;;;31.96;92.55
6565;BME280;3316;44.118;27.258;2023-07-13T04:54:37;100962.00;;;32.16;91.88
6565;BME280;3316;44.118;27.258;2023-07-13T04:57:04;100975.72;;;32.24;92.88
6565;BME280;3316;44.118;27.258;2023-07-13T04:59:32;100973.47;;;32.20;96.50
6565;BME280;3316;44.118;27.258;2023-07-13T05:01:58;100978.75;;;32.21;95.35
6565;BME280;3316;44.118;27.258;2023-07-13T05:04:23;100977.50;;;32.06;95.92
6565;BME280;3316;44.118;27.258;2023-07-13T05:06:49;100946.38;;;31.90;99.83
6565;BME280;3316;44.118;27.258;2023-07-13T05:09:14;100982.22;;;32.04;100.00
6565;BME280;3316;44.118;27.258;2023-07-13T05:11:59;100984.66;;;31.98;100.00
6565;BME280;3316;44.118;27.258;2023-07-13T05:14:24;100988.81;;;31.92;100.00
6565;BME280;3316;44.118;27.258;2023-07-13T05:16:50;100995.81;;;31.85;100.00
6565;BME280;3316;44.118;27.258;2023-07-13T05:19:15;100998.22;;;31.88;100.00
6565;BME280;3316;44.118;27.258;2023-07-13T05:21:41;100994.09;;;31.94;100.00
6565;BME280;3316;44.118;27.258;2023-07-13T05:24:06;101006.00;;;32.02;100.00
6565;BME280;3316;44.118;27.258;2023-07-13T05:26:32;101013.56;;;32.27;100.00
6565;BME280;3316;44.118;27.258;2023-07-13T05:28:57;101005.94;;;32.40;100.00
6565;BME280;3316;44.118;27.258;2023-07-13T05:31:23;101009.25;;;32.44;99.09
6565;BME280;3316;44.118;27.258;2023-07-13T05:33:48;101003.53;;;32.47;99.32
6565;BME280;3316;44.118;27.258;2023-07-13T05:36:13;101008.72;;;32.77;96.56
6565;BME280;3316;44.118;27.258;2023-07-13T05:38:39;101009.72;;;32.86;95.41
6565;BME280;3316;44.118;27.258;2023-07-13T05:41:05;101018.28;;;33.10;96.26
6565;BME280;3316;44.118;27.258;2023-07-13T05:43:31;101017.41;;;33.09;96.34
6565;BME280;3316;44.118;27.258;2023-07-13T05:45:57;101005.28;;;33.21;96.42
6565;BME280;3316;44.118;27.258;2023-07-13T05:48:22;101003.00;;;33.17;94.02
6565;BME280;3316;44.118;27.258;2023-07-13T05:50:48;101011.53;;;33.32;94.15
6565;BME280;3316;44.118;27.258;2023-07-13T05:53:14;101010.44;;;33.24;93.26
6565;BME280;3316;44.118;27.258;2023-07-13T05:55:44;100985.84;;;33.07;93.13
6565;BME280;3316;44.118;27.258;2023-07-13T05:58:13;101024.81;;;33.44;93.91
6565;BME280;3316;44.118;27.258;2023-07-13T06:00:38;101024.88;;;33.62;92.27
6565;BME280;3316;44.118;27.258;2023-07-13T06:03:04;101024.97;;;33.70;91.75
6565;BME280;3316;44.118;27.258;2023-07-13T06:05:29;101030.50;;;33.78;91.17
6565;BME280;3316;44.118;27.258;2023-07-13T06:07:55;101038.22;;;33.82;90.88
6565;BME280;3316;44.118;27.258;2023-07-13T06:10:20;101025.50;;;33.91;89.85
6565;BME280;3316;44.118;27.258;2023-07-13T06:12:46;101028.25;;;33.91;88.77
6565;BME280;3316;44.118;27.258;2023-07-13T06:15:12;101029.50;;;33.96;85.66
6565;BME280;3316;44.118;27.258;2023-07-13T06:17:37;101031.50;;;33.94;83.81
6565;BME280;3316;44.118;27.258;2023-07-13T06:20:03;101029.94;;;34.01;82.57
6565;BME280;3316;44.118;27.258;2023-07-13T06:22:29;101029.75;;;34.21;80.14
6565;BME280;3316;44.118;27.258;2023-07-13T06:24:54;101030.44;;;34.40;78.54
6565;BME280;3316;44.118;27.258;2023-07-13T06:27:20;101024.44;;;34.37;77.51
6565;BME280;3316;44.118;27.258;2023-07-13T06:29:45;101040.81;;;34.54;75.66
6565;BME280;3316;44.118;27.258;2023-07-13T06:32:11;101028.75;;;34.65;74.78
6565;BME280;3316;44.118;27.258;2023-07-13T06:34:36;101030.09;;;34.61;75.68
6565;BME280;3316;44.118;27.258;2023-07-13T06:37:02;101039.78;;;34.38;71.88
6565;BME280;3316;44.118;27.258;2023-07-13T06:39:27;101037.69;;;34.49;74.72
6565;BME280;3316;44.118;27.258;2023-07-13T06:41:53;101033.09;;;34.50;74.78
6565;BME280;3316;44.118;27.258;2023-07-13T06:44:18;101028.75;;;34.65;75.38
6565;BME280;3316;44.118;27.258;2023-07-13T06:46:44;101026.69;;;34.92;73.90
6565;BME280;3316;44.118;27.258;2023-07-13T06:49:09;101032.72;;;34.96;72.88
6565;BME280;3316;44.118;27.258;2023-07-13T06:51:35;101029.06;;;34.87;74.07
6565;BME280;3316;44.118;27.258;2023-07-13T06:54:00;101033.28;;;34.82;73.64
6565;BME280;3316;44.118;27.258;2023-07-13T06:56:25;101029.16;;;34.78;76.25
6565;BME280;3316;44.118;27.258;2023-07-13T06:58:51;101024.94;;;34.83;74.78
6565;BME280;3316;44.118;27.258;2023-07-13T07:01:16;101035.25;;;34.89;73.55
6565;BME280;3316;44.118;27.258;2023-07-13T07:03:42;101019.66;;;34.56;73.85
6565;BME280;3316;44.118;27.258;2023-07-13T07:06:17;100994.81;;;34.50;74.92
6565;BME280;3316;44.118;27.258;2023-07-13T07:08:43;100976.63;;;34.41;74.02
6565;BME280;3316;44.118;27.258;2023-07-13T07:11:16;101040.22;;;34.68;74.81
6565;BME280;3316;44.118;27.258;2023-07-13T07:13:42;101033.28;;;34.82;74.58
6565;BME280;3316;44.118;27.258;2023-07-13T07:16:07;101030.13;;;34.69;76.25
6565;BME280;3316;44.118;27.258;2023-07-13T07:18:34;101003.03;;;34.75;76.16
6565;BME280;3316;44.118;27.258;2023-07-13T07:20:59;101039.50;;;35.18;76.89
6565;BME280;3316;44.118;27.258;2023-07-13T07:23:25;101039.56;;;35.34;75.97
6565;BME280;3316;44.118;27.258;2023-07-13T07:25:50;101037.53;;;35.36;73.92
6565;BME280;3316;44.118;27.258;2023-07-13T07:28:17;101035.13;;;35.41;74.70
6565;BME280;3316;44.118;27.258;2023-07-13T07:30:44;101034.38;;;35.64;73.93
6565;BME280;3316;44.118;27.258;2023-07-13T07:33:09;101025.50;;;35.70;73.63
6565;BME280;3316;44.118;27.258;2023-07-13T07:35:35;101034.59;;;35.79;72.95
6565;BME280;3316;44.118;27.258;2023-07-13T07:38:00;101013.22;;;35.83;73.01
6565;BME280;3316;44.118;27.258;2023-07-13T07:40:26;101022.81;;;35.87;74.46
6565;BME280;3316;44.118;27.258;2023-07-13T07:42:52;101008.75;;;35.65;73.20
6565;BME280;3316;44.118;27.258;2023-07-13T07:45:18;101016.28;;;35.79;73.13
6565;BME280;3316;44.118;27.258;2023-07-13T07:47:44;100974.38;;;35.79;71.92
6565;BME280;3316;44.118;27.258;2023-07-13T07:50:10;101015.16;;;36.06;70.85
6565;BME280;3316;44.118;27.258;2023-07-13T07:52:35;101009.81;;;36.13;69.00
6565;BME280;3316;44.118;27.258;2023-07-13T07:55:01;100970.75;;;35.87;68.45
6565;BME280;3316;44.118;27.258;2023-07-13T07:57:27;101004.72;;;36.26;69.14
6565;BME280;3316;44.118;27.258;2023-07-13T07:59:52;100995.66;;;36.41;67.02
6565;BME280;3316;44.118;27.258;2023-07-13T08:02:17;101002.66;;;36.28;66.86
6565;BME280;3316;44.118;27.258;2023-07-13T08:04:43;100993.06;;;36.40;66.26
6565;BME280;3316;44.118;27.258;2023-07-13T08:07:08;101008.25;;;36.75;63.59
6565;BME280;3316;44.118;27.258;2023-07-13T08:09:34;101009.47;;;36.64;64.17
6565;BME280;3316;44.118;27.258;2023-07-13T08:11:59;101005.22;;;36.37;65.61
6565;BME280;3316;44.118;27.258;2023-07-13T08:14:25;101011.00;;;36.34;66.17
6565;BME280;3316;44.118;27.258;2023-07-13T08:16:50;101006.41;;;36.11;68.32
6565;BME280;3316;44.118;27.258;2023-07-13T08:19:16;101014.28;;;36.30;65.30
6565;BME280;3316;44.118;27.258;2023-07-13T08:21:41;101006.22;;;36.28;60.33
6565;BME280;3316;44.118;27.258;2023-07-13T08:24:08;101021.50;;;36.39;60.42
6565;BME280;3316;44.118;27.258;2023-07-13T08:26:34;101024.22;;;36.63;56.80
6565;BME280;3316;44.118;27.258;2023-07-13T08:28:59;101028.97;;;36.93;55.81
6565;BME280;3316;44.118;27.258;2023-07-13T08:31:25;101028.56;;;37.04;54.84
6565;BME280;3316;44.118;27.258;2023-07-13T08:33:51;101029.56;;;37.19;54.55
6565;BME280;3316;44.118;27.258;2023-07-13T08:36:16;101027.94;;;36.94;55.90
6565;BME280;3316;44.118;27.258;2023-07-13T08:38:41;101021.41;;;36.95;58.01
6565;BME280;3316;44.118;27.258;2023-07-13T08:41:17;101008.75;;;36.94;58.61
6565;BME280;3316;44.118;27.258;2023-07-13T08:43:47;101025.50;;;37.07;58.38
6565;BME280;3316;44.118;27.258;2023-07-13T08:54:12;101018.16;;;37.46;58.65
6565;BME280;3316;44.118;27.258;2023-07-13T08:56:43;101021.91;;;37.45;57.54
6565;BME280;3316;44.118;27.258;2023-07-13T08:59:14;101009.56;;;37.41;57.58
6565;BME280;3316;44.118;27.258;2023-07-13T09:04:32;101016.47;;;37.76;53.58
6565;BME280;3316;44.118;27.258;2023-07-13T09:07:11;101006.72;;;37.88;53.75
6565;BME280;3316;44.118;27.258;2023-07-13T09:10:10;101007.25;;;37.92;53.23
6565;BME280;3316;44.118;27.258;2023-07-13T09:15:29;101001.19;;;37.66;55.43
6565;BME280;3316;44.118;27.258;2023-07-13T09:17:59;101007.94;;;37.55;56.75
6565;BME280;3316;44.118;27.258;2023-07-13T09:20:31;100997.06;;;37.70;56.39
6565;BME280;3316;44.118;27.258;2023-07-13T09:23:01;100974.22;;;37.69;53.83
6565;BME280;3316;44.118;27.258;2023-07-13T09:25:31;100999.00;;;37.92;52.67
6565;BME280;3316;44.118;27.258;2023-07-13T09:28:02;100987.38;;;38.04;52.70
6565;BME280;3316;44.118;27.258;2023-07-13T09:30:45;100996.47;;;38.05;53.35
6565;BME280;3316;44.118;27.258;2023-07-13T09:33:13;100987.38;;;38.04;52.84
6565;BME280;3316;44.118;27.258;2023-07-13T09:35:39;100980.66;;;38.07;52.73
6565;BME280;3316;44.118;27.258;2023-07-13T09:38:16;100975.34;;;38.05;52.23
6565;BME280;3316;44.118;27.258;2023-07-13T09:43:15;100980.44;;;38.31;49.47
6565;BME280;3316;44.118;27.258;2023-07-13T09:45:45;100981.50;;;38.30;47.90
6565;BME280;3316;44.118;27.258;2023-07-13T09:48:13;100979.34;;;38.40;47.70
6565;BME280;3316;44.118;27.258;2023-07-13T09:50:41;100974.22;;;38.37;47.73
6565;BME280;3316;44.118;27.258;2023-07-13T09:53:16;100969.00;;;38.42;46.70
6565;BME280;3316;44.118;27.258;2023-07-13T09:55:45;100964.03;;;38.60;47.51
6565;BME280;3316;44.118;27.258;2023-07-13T09:58:17;100975.31;;;38.65;48.13
6565;BME280;3316;44.118;27.258;2023-07-13T10:01:01;100968.84;;;39.02;47.64
6565;BME280;3316;44.118;27.258;2023-07-13T10:03:32;100956.53;;;38.98;46.59
6565;BME280;3316;44.118;27.258;2023-07-13T10:06:20;100950.09;;;38.91;45.85
6565;BME280;3316;44.118;27.258;2023-07-13T10:08:49;100954.25;;;38.87;47.23
6565;BME280;3316;44.118;27.258;2023-07-13T10:11:23;100972.38;;;38.96;46.50
6565;BME280;3316;44.118;27.258;2023-07-13T10:13:53;100969.19;;;38.78;47.80
6565;BME280;3316;44.118;27.258;2023-07-13T10:16:22;100976.47;;;38.71;47.37
6565;BME280;3316;44.118;27.258;2023-07-13T10:18:53;100974.47;;;38.79;47.10
6565;BME280;3316;44.118;27.258;2023-07-13T10:21:41;100978.06;;;38.65;47.67
6565;BME280;3316;44.118;27.258;2023-07-13T10:24:15;100973.03;;;38.69;48.05
6565;BME280;3316;44.118;27.258;2023-07-13T10:26:48;100988.03;;;38.81;48.32
6565;BME280;3316;44.118;27.258;2023-07-13T10:29:18;100977.50;;;38.84;49.30
6565;BME280;3316;44.118;27.258;2023-07-13T10:31:46;100985.41;;;38.87;49.66
6565;BME280;3316;44.118;27.258;2023-07-13T10:34:12;100968.69;;;38.89;50.68
6565;BME280;3316;44.118;27.258;2023-07-13T10:36:47;100976.91;;;38.60;50.82
6565;BME280;3316;44.118;27.258;2023-07-13T10:39:26;100968.22;;;38.33;49.38
6565;BME280;3316;44.118;27.258;2023-07-13T10:42:02;100966.63;;;38.39;49.42
6565;BME280;3316;44.118;27.258;2023-07-13T10:44:31;100956.75;;;38.30;51.01
6565;BME280;3316;44.118;27.258;2023-07-13T10:47:00;100955.06;;;38.44;50.86
6565;BME280;3316;44.118;27.258;2023-07-13T10:49:29;100947.94;;;37.97;50.53
6565;BME280;3316;44.118;27.258;2023-07-13T10:51:56;100946.00;;;38.20;50.24
6565;BME280;3316;44.118;27.258;2023-07-13T10:54:34;100950.88;;;38.33;52.27
6565;BME280;3316;44.118;27.258;2023-07-13T10:57:19;100961.88;;;38.33;50.72
6565;BME280;3316;44.118;27.258;2023-07-13T11:00:12;100952.97;;;38.08;50.66
6565;BME280;3316;44.118;27.258;2023-07-13T11:02:34;100961.44;;;38.44;49.74
6565;BME280;3316;44.118;27.258;2023-07-13T11:05:18;100963.50;;;38.57;47.39
6565;BME280;3316;44.118;27.258;2023-07-13T11:08:36;100961.19;;;38.31;49.15
6565;BME280;3316;44.118;27.258;2023-07-13T11:11:02;100965.09;;;38.22;48.99
6565;BME280;3316;44.118;27.258;2023-07-13T11:13:39;100955.06;;;38.06;47.93
6565;BME280;3316;44.118;27.258;2023-07-13T11:21:27;100907.66;;;38.27;44.54
6565;BME280;3316;44.118;27.258;2023-07-13T11:24:17;100955.94;;;38.59;44.12
6565;BME280;3316;44.118;27.258;2023-07-13T11:31:43;100941.47;;;38.79;41.90
6565;BME280;3316;44.118;27.258;2023-07-13T11:34:21;100922.94;;;38.88;42.65
6565;BME280;3316;44.118;27.258;2023-07-13T11:36:47;100912.03;;;39.09;42.00
6565;BME280;3316;44.118;27.258;2023-07-13T11:42:09;100898.91;;;39.11;41.87
6565;BME280;3316;44.118;27.258;2023-07-13T11:44:43;100899.28;;;39.08;41.11
6565;BME280;3316;44.118;27.258;2023-07-13T11:47:20;100891.41;;;39.20;42.01
6565;BME280;3316;44.118;27.258;2023-07-13T11:49:52;100886.75;;;39.05;42.54
6565;BME280;3316;44.118;27.258;2023-07-13T11:52:32;100883.66;;;39.08;41.91
6565;BME280;3316;44.118;27.258;2023-07-13T11:55:00;100881.28;;;38.91;41.34
6565;BME280;3316;44.118;27.258;2023-07-13T11:57:29;100881.94;;;38.93;41.66
6565;BME280;3316;44.118;27.258;2023-07-13T11:59:58;100876.88;;;38.75;41.35
6565;BME280;3316;44.118;27.258;2023-07-13T12:02:36;100873.72;;;38.78;43.16
6565;BME280;3316;44.118;27.258;2023-07-13T12:05:04;100863.66;;;38.85;41.55
6565;BME280;3316;44.118;27.258;2023-07-13T12:07:32;100862.41;;;38.88;41.46
6565;BME280;3316;44.118;27.258;2023-07-13T12:10:28;100871.09;;;39.06;40.88
6565;BME280;3316;44.118;27.258;2023-07-13T12:13:04;100860.81;;;38.93;41.21
6565;BME280;3316;44.118;27.258;2023-07-13T12:15:56;100855.28;;;39.29;40.94
6565;BME280;3316;44.118;27.258;2023-07-13T12:18:24;100851.41;;;39.45;40.30
6565;BME280;3316;44.118;27.258;2023-07-13T12:20:56;100849.84;;;39.36;40.86
6565;BME280;3316;44.118;27.258;2023-07-13T12:23:31;100854.63;;;39.48;39.51
6565;BME280;3316;44.118;27.258;2023-07-13T12:26:00;100840.75;;;39.56;38.92
6565;BME280;3316;44.118;27.258;2023-07-13T12:28:38;100850.53;;;39.59;39.73
6565;BME280;3316;44.118;27.258;2023-07-13T12:31:06;100840.41;;;39.24;38.30
6565;BME280;3316;44.118;27.258;2023-07-13T12:33:32;100851.28;;;39.10;38.39
6565;BME280;3316;44.118;27.258;2023-07-13T12:36:03;100800.94;;;38.81;36.20
6565;BME280;3316;44.118;27.258;2023-07-13T12:38:32;100845.16;;;39.15;38.46
6565;BME280;3316;44.118;27.258;2023-07-13T12:40:57;100788.53;;;38.70;37.35
6565;BME280;3316;44.118;27.258;2023-07-13T12:43:24;100847.81;;;39.23;35.89
6565;BME280;3316;44.118;27.258;2023-07-13T12:45:56;100844.88;;;39.25;36.50
6565;BME280;3316;44.118;27.258;2023-07-13T12:48:21;100822.31;;;39.00;37.51
6565;BME280;3316;44.118;27.258;2023-07-13T12:50:48;100849.66;;;39.16;38.07
6565;BME280;3316;44.118;27.258;2023-07-13T12:53:23;100839.88;;;39.35;37.97
6565;BME280;3316;44.118;27.258;2023-07-13T12:55:51;100839.94;;;39.41;37.93
6565;BME280;3316;44.118;27.258;2023-07-13T12:58:30;100843.69;;;39.34;34.84
6565;BME280;3316;44.118;27.258;2023-07-13T13:00:59;100839.81;;;39.28;35.84
6565;BME280;3316;44.118;27.258;2023-07-13T13:03:37;100844.03;;;39.24;35.19
6565;BME280;3316;44.118;27.258;2023-07-13T13:06:21;100838.31;;;39.26;35.33
6565;BME280;3316;44.118;27.258;2023-07-13T13:08:56;100846.31;;;39.21;35.75
6565;BME280;3316;44.118;27.258;2023-07-13T13:11:24;100847.75;;;39.17;35.90
6565;BME280;3316;44.118;27.258;2023-07-13T13:13:51;100826.06;;;39.28;36.14
6565;BME280;3316;44.118;27.258;2023-07-13T13:18:51;100836.22;;;39.28;36.36
6565;BME280;3316;44.118;27.258;2023-07-13T13:21:17;100846.59;;;39.11;36.56
6565;BME280;3316;44.118;27.258;2023-07-13T13:23:43;100849.78;;;39.29;36.84
6565;BME280;3316;44.118;27.258;2023-07-13T13:26:14;100846.69;;;39.60;37.38
6565;BME280;3316;44.118;27.258;2023-07-13T13:28:44;100815.38;;;39.40;37.32
6565;BME280;3316;44.118;27.258;2023-07-13T13:31:10;100839.75;;;39.43;37.47
6565;BME280;3316;44.118;27.258;2023-07-13T13:33:41;100842.13;;;39.46;37.91
6565;BME280;3316;44.118;27.258;2023-07-13T13:36:20;100833.13;;;39.37;37.18
6565;BME280;3316;44.118;27.258;2023-07-13T13:38:48;100830.81;;;39.62;37.26